Concrete, North Dakota
Current Conditions -  °F | °C
As of 6:35 AM on Sunday 21 Dec 2014 (Local Time) from K2C8 Reporting Station
Haze Haze  
Wind Chill: 18°   Ceiling: 600
Heat Index: 28°   Visibility: 4mi
Dew Point: 28°   Wind: 12mph
Humidity: 100%   Direction: 180°S
Pressure: 29.68"   Gusts: NA
Location:  48.8218°N, 97.697°W
Report Text: K2C8 211235Z AUTO 18010KT 4SM BR OVC006 M02/M02 A2968 RMK AO2
Loading
Personal Weather Stations






























Interactive Weather Map New forecast layout! Learn more

10-Day Weather Forecast

Advertisements
Track Severe Weather on mobile